Time;durP1;ratioP1;P1;durP2;ratioP2;P2;SDS_P1;SDS_P2;PMS_P1;PMS_P2;Temp;Humidity;BMP_temperature;BMP_pressure;BME280_temperature;BME280_humidity;BME280_pressure;Samples;Min_cycle;Max_cycle;Signal;HPM_P1;HPM_P2
2023/03/28 00:02:29;;;;;;;;;;;;;;;25.82;40.41;94976.25;4929058;29;7513;-55
2023/03/28 00:05:04;;;;;;;;;;;;;;;25.81;41.02;94977.50;4926639;29;9181;-55
2023/03/28 00:07:31;;;;;;;;;;;;;;;25.81;40.87;94985.00;4924375;29;8977;-56
2023/03/28 00:10:08;;;;;;;;;;;;;;;25.82;41.03;94989.25;4926790;28;7279;-55
2023/03/28 00:12:44;;;;;;;;;;;;;;;25.79;40.26;94985.53;4928914;28;8792;-56
2023/03/28 00:15:27;;;;;;;;;;;;;;;25.81;40.31;94991.28;4953462;28;9395;-55
2023/03/28 00:18:22;;;;;;;;;;;;;;;25.80;40.50;94987.00;4936899;28;9051;-55
2023/03/28 00:20:58;;;;;;;;;;;;;;;25.80;40.46;94994.50;4913794;29;7162;-56
2023/03/28 00:23:34;;;;;;;;;;;;;;;25.79;40.58;94991.03;4899238;29;7234;-55
2023/03/28 00:26:06;;;;;;;;;;;;;;;25.76;41.07;94983.75;4898838;29;7196;-55
2023/03/28 00:28:34;;;;;;;;;;;;;;;25.78;41.15;94992.28;4899243;29;7066;-55
2023/03/28 00:31:17;;;;;;;;;;;;;;;25.79;40.15;94993.03;4899450;29;7285;-55
2023/03/28 00:33:53;;;;;;;;;;;;;;;25.77;40.53;94982.50;4899281;29;9017;-55
2023/03/28 00:36:31;;;;;;;;;;;;;;;25.76;41.09;95000.28;4912020;29;9075;-55
2023/03/28 00:39:30;;;;;;;;;;;;;;;25.78;40.16;94995.03;4903499;29;9309;-55
2023/03/28 00:42:00;;;;;;;;;;;;;;;25.77;41.11;94990.78;4919917;29;9162;-55
2023/03/28 00:45:04;;;;;;;;;;;;;;;25.77;40.27;94996.28;4913285;29;7991;-55
2023/03/28 00:47:44;;;;;;;;;;;;;;;25.78;41.03;94992.28;4920329;29;9081;-55
2023/03/28 00:50:29;;;;;;;;;;;;;;;25.75;40.96;94993.25;4912777;29;8234;-55
2023/03/28 00:53:16;;;;;;;;;;;;;;;25.77;40.01;94985.25;4924835;29;8711;-56
2023/03/28 00:55:45;;;;;;;;;;;;;;;25.77;40.45;94995.53;4914145;29;9043;-55
2023/03/28 00:58:22;;;;;;;;;;;;;;;25.76;40.22;94989.25;4938333;28;9207;-55
2023/03/28 01:00:49;;;;;;;;;;;;;;;25.74;40.52;94989.00;4949409;29;7619;-55
2023/03/28 01:03:21;;;;;;;;;;;;;;;25.76;40.84;94985.75;4935584;29;8955;-55
2023/03/28 01:05:50;;;;;;;;;;;;;;;25.76;40.19;94992.00;4933891;28;7355;-55
2023/03/28 01:08:36;;;;;;;;;;;;;;;25.76;40.27;94988.50;4966476;28;9328;-55
2023/03/28 01:11:12;;;;;;;;;;;;;;;25.77;41.09;94995.53;4966436;28;7039;-55
2023/03/28 01:14:23;;;;;;;;;;;;;;;25.75;40.83;94987.75;4971832;28;8739;-56
2023/03/28 01:17:02;;;;;;;;;;;;;;;25.75;40.37;94993.25;4901793;29;9138;-55
2023/03/28 01:19:57;;;;;;;;;;;;;;;25.77;40.73;94993.53;4946354;28;9209;-55
2023/03/28 01:22:51;;;;;;;;;;;;;;;25.77;40.08;94993.53;4952481;28;7262;-55
2023/03/28 01:25:41;;;;;;;;;;;;;;;25.76;40.94;94994.75;4962154;28;7037;-55
2023/03/28 01:28:30;;;;;;;;;;;;;;;25.76;40.77;95002.28;4943768;28;9055;-55
2023/03/28 01:31:26;;;;;;;;;;;;;;;25.75;40.30;95004.28;4940997;28;8716;-55
2023/03/28 01:34:42;;;;;;;;;;;;;;;25.76;40.12;94999.53;4941915;28;7646;-55
2023/03/28 01:37:40;;;;;;;;;;;;;;;25.75;40.05;95007.03;4914151;29;8773;-55
2023/03/28 01:40:44;;;;;;;;;;;;;;;25.76;40.62;95003.03;4919258;29;8224;-55
2023/03/28 01:43:49;;;;;;;;;;;;;;;25.75;40.25;95000.78;4883278;29;9737;-55
2023/03/28 01:46:38;;;;;;;;;;;;;;;25.75;41.22;95004.28;4873497;29;7061;-55
2023/03/28 01:49:32;;;;;;;;;;;;;;;25.76;40.10;95005.03;4894242;29;9216;-55
2023/03/28 01:52:37;;;;;;;;;;;;;;;25.75;40.37;95000.78;4871939;29;8206;-55
2023/03/28 01:55:21;;;;;;;;;;;;;;;25.76;40.81;94997.53;4895707;29;9414;-55
2023/03/28 01:58:12;;;;;;;;;;;;;;;25.74;40.68;94996.50;4884136;29;9395;-55
2023/03/28 02:01:22;;;;;;;;;;;;;;;25.74;40.97;95002.78;4908867;29;9067;-55
2023/03/28 02:04:05;;;;;;;;;;;;;;;25.74;40.43;94997.28;4923392;29;9059;-55
2023/03/28 02:06:37;;;;;;;;;;;;;;;25.74;40.73;94989.00;4913245;29;9157;-56
2023/03/28 02:09:08;;;;;;;;;;;;;;;25.75;41.10;94998.75;4908390;29;9226;-55
2023/03/28 02:11:51;;;;;;;;;;;;;;;25.75;41.08;94993.25;4916759;29;9354;-55
2023/03/28 02:14:50;;;;;;;;;;;;;;;25.75;41.16;94995.28;4970236;28;7111;-55
2023/03/28 02:17:21;;;;;;;;;;;;;;;25.73;40.98;94987.47;4938103;28;7051;-55
2023/03/28 02:20:10;;;;;;;;;;;;;;;25.74;40.28;94983.50;4944979;28;7023;-56
2023/03/28 02:23:05;;;;;;;;;;;;;;;25.75;40.65;94993.25;4948104;28;7583;-55
2023/03/28 02:25:40;;;;;;;;;;;;;;;25.75;40.98;94982.22;4964024;28;7382;-55
2023/03/28 02:28:10;;;;;;;;;;;;;;;25.74;41.02;94977.97;4944257;28;7047;-55
2023/03/28 02:30:45;;;;;;;;;;;;;;;25.74;40.67;94983.50;4946133;28;9334;-55
2023/03/28 02:33:49;;;;;;;;;;;;;;;25.74;40.84;94966.97;4964292;28;7015;-55
2023/03/28 02:36:35;;;;;;;;;;;;;;;25.75;40.77;94967.72;4953728;28;7596;-55
2023/03/28 02:39:45;;;;;;;;;;;;;;;25.74;40.46;94966.97;4949062;28;7454;-56
2023/03/28 02:42:39;;;;;;;;;;;;;;;25.74;40.80;94963.44;4958579;28;8751;-55
2023/03/28 02:45:45;;;;;;;;;;;;;;;25.74;41.09;94966.19;4960967;28;7046;-56
2023/03/28 02:52:23;;;;;;;;;;;;;;;25.73;40.59;94961.97;4959310;28;9121;-55
2023/03/28 02:55:24;;;;;;;;;;;;;;;25.71;41.17;94959.69;4927860;28;9087;-55
2023/03/28 02:58:28;;;;;;;;;;;;;;;25.72;41.07;94969.47;4933663;28;7436;-55
2023/03/28 03:01:27;;;;;;;;;;;;;;;25.73;40.80;94959.19;4939699;28;8614;-56
2023/03/28 03:03:54;;;;;;;;;;;;;;;25.71;40.81;94956.94;4900217;29;7264;-56
2023/03/28 03:06:22;;;;;;;;;;;;;;;25.73;40.76;94962.69;4906377;29;9191;-55
2023/03/28 03:09:07;;;;;;;;;;;;;;;25.72;40.96;94960.44;4900333;29;9435;-55
2023/03/28 03:11:59;;;;;;;;;;;;;;;25.74;40.22;94966.19;4916848;29;8045;-55
2023/03/28 03:15:00;;;;;;;;;;;;;;;25.74;41.02;94966.19;4896106;29;7295;-55
2023/03/28 03:17:27;;;;;;;;;;;;;;;25.73;41.14;94970.94;4881941;29;7058;-55
2023/03/28 03:19:54;;;;;;;;;;;;;;;25.73;41.19;94964.72;4882091;29;7226;-56
2023/03/28 03:22:30;;;;;;;;;;;;;;;25.72;41.02;94965.94;4881886;29;9313;-55
2023/03/28 03:25:15;;;;;;;;;;;;;;;25.73;41.16;94959.94;4898006;29;9013;-56
2023/03/28 03:28:10;;;;;;;;;;;;;;;25.73;40.74;94959.19;4889946;29;7279;-55
2023/03/28 03:31:06;;;;;;;;;;;;;;;25.74;40.50;94955.19;4883411;29;7820;-55
2023/03/28 03:33:51;;;;;;;;;;;;;;;25.74;40.14;94944.16;4869390;29;9295;-55
2023/03/28 03:36:19;;;;;;;;;;;;;;;25.73;40.08;94951.66;4865522;29;9028;-55
2023/03/28 03:38:56;;;;;;;;;;;;;;;25.73;40.39;94943.41;4862754;29;7224;-55
2023/03/28 03:42:15;;;;;;;;;;;;;;;25.74;40.71;94944.91;4869894;29;6972;-55
2023/03/28 03:44:53;;;;;;;;;;;;;;;25.75;40.84;94951.19;4804254;29;9319;-55
2023/03/28 03:47:44;;;;;;;;;;;;;;;25.75;40.30;94945.69;4804318;29;7907;-55
2023/03/28 03:50:10;;;;;;;;;;;;;;;25.73;40.35;94943.41;4804813;29;7208;-55
2023/03/28 03:52:48;;;;;;;;;;;;;;;25.74;40.74;94949.66;4815373;29;8488;-55
2023/03/28 03:55:50;;;;;;;;;;;;;;;25.74;40.55;94950.44;4840783;29;7069;-55
2023/03/28 03:58:17;;;;;;;;;;;;;;;25.71;40.27;94945.91;4804814;29;8746;-55
2023/03/28 04:00:52;;;;;;;;;;;;;;;25.74;40.37;94947.69;4789979;29;9296;-55
2023/03/28 04:03:29;;;;;;;;;;;;;;;25.73;41.21;94948.91;4789177;29;9271;-55
2023/03/28 04:06:04;;;;;;;;;;;;;;;25.73;40.90;94948.91;4806365;29;9401;-55
2023/03/28 04:08:31;;;;;;;;;;;;;;;25.73;40.66;94948.91;4858468;29;9682;-55
2023/03/28 04:10:58;;;;;;;;;;;;;;;25.72;40.15;94944.66;4849514;29;9133;-56
2023/03/28 04:13:41;;;;;;;;;;;;;;;25.73;40.48;94948.91;4842643;29;8734;-55
2023/03/28 04:16:16;;;;;;;;;;;;;;;25.72;40.28;94941.16;4853791;29;7288;-55
2023/03/28 04:18:54;;;;;;;;;;;;;;;25.72;40.64;94947.41;4844059;29;7014;-55
2023/03/28 04:21:41;;;;;;;;;;;;;;;25.73;40.14;94954.41;4936368;28;9016;-55
2023/03/28 04:24:25;;;;;;;;;;;;;;;25.73;40.48;94943.41;4930385;29;7322;-55
2023/03/28 04:27:16;;;;;;;;;;;;;;;25.73;40.23;94946.16;4951701;28;9045;-55
2023/03/28 04:29:45;;;;;;;;;;;;;;;25.74;40.15;94949.66;4947730;28;9151;-55
2023/03/28 04:32:39;;;;;;;;;;;;;;;25.73;40.20;94946.16;4974662;28;7509;-56
2023/03/28 04:35:39;;;;;;;;;;;;;;;25.74;40.56;94944.16;4933199;29;9074;-56
2023/03/28 04:38:25;;;;;;;;;;;;;;;25.74;40.45;94946.91;4892236;29;9117;-55
2023/03/28 04:41:09;;;;;;;;;;;;;;;25.72;40.38;94947.41;4889462;29;9458;-55
2023/03/28 04:43:37;;;;;;;;;;;;;;;25.75;40.47;94948.44;4891511;29;7302;-55
2023/03/28 04:46:03;;;;;;;;;;;;;;;25.74;40.81;94950.44;4876853;29;7035;-55
2023/03/28 04:48:38;;;;;;;;;;;;;;;25.74;40.11;94950.44;4894015;29;9228;-55
2023/03/28 04:51:09;;;;;;;;;;;;;;;25.73;40.84;94953.69;4895332;29;7050;-55
2023/03/28 04:53:43;;;;;;;;;;;;;;;25.75;40.60;94957.44;4878633;29;9117;-55
2023/03/28 04:56:48;;;;;;;;;;;;;;;25.80;39.99;94962.22;4886640;29;9382;-56
2023/03/28 04:59:16;;;;;;;;;;;;;;;25.80;39.64;94964.19;4810415;29;9109;-55
2023/03/28 05:02:05;;;;;;;;;;;;;;;25.79;39.71;94968.22;4820878;29;7044;-56
2023/03/28 05:04:45;;;;;;;;;;;;;;;25.77;40.50;94971.50;4820396;29;9057;-56
2023/03/28 05:07:31;;;;;;;;;;;;;;;25.76;40.58;94978.25;4804470;29;8934;-56
2023/03/28 05:10:18;;;;;;;;;;;;;;;25.76;40.67;94974.72;4807746;29;9269;-55
2023/03/28 05:13:07;;;;;;;;;;;;;;;25.76;41.23;94975.47;4863213;29;9163;-56
2023/03/28 05:15:34;;;;;;;;;;;;;;;25.74;40.60;94977.97;4910734;29;9068;-55
2023/03/28 05:18:14;;;;;;;;;;;;;;;25.78;41.29;94989.50;4948684;28;9764;-55
2023/03/28 05:20:41;;;;;;;;;;;;;;;25.78;40.44;94984.00;4916314;29;7298;-55
2023/03/28 05:23:09;;;;;;;;;;;;;;;25.77;41.07;94988.03;4926593;29;7253;-55
2023/03/28 05:25:53;;;;;;;;;;;;;;;25.82;40.16;94997.53;4933129;29;7244;-56
2023/03/28 05:28:20;;;;;;;;;;;;;;;25.88;40.18;94999.03;4932591;28;6976;-55
2023/03/28 05:30:48;;;;;;;;;;;;;;;25.82;40.46;94995.53;4924140;29;7126;-55
2023/03/28 05:33:42;;;;;;;;;;;;;;;25.84;39.81;95000.53;4983462;28;7053;-56
2023/03/28 05:36:11;;;;;;;;;;;;;;;25.82;40.36;94998.28;4924519;29;6986;-56
2023/03/28 05:38:38;;;;;;;;;;;;;;;25.80;39.78;95005.53;4917086;29;8784;-56
2023/03/28 05:41:09;;;;;;;;;;;;;;;25.78;40.07;95005.28;4934542;29;8815;-56
2023/03/28 05:44:27;;;;;;;;;;;;;;;25.78;40.64;95016.31;4926132;29;8187;-55
2023/03/28 05:47:03;;;;;;;;;;;;;;;25.78;40.01;95016.31;4862357;29;7860;-55
2023/03/28 05:49:31;;;;;;;;;;;;;;;25.77;40.42;95021.09;4859529;29;7272;-55
2023/03/28 05:51:58;;;;;;;;;;;;;;;25.75;40.18;95023.56;4875793;29;8635;-55
2023/03/28 05:54:25;;;;;;;;;;;;;;;25.76;40.06;95027.84;4879183;29;9048;-55
2023/03/28 05:57:17;;;;;;;;;;;;;;;25.76;40.27;95027.84;4866332;29;8991;-55
2023/03/28 05:59:47;;;;;;;;;;;;;;;25.76;39.69;95025.06;4870493;29;8222;-55
2023/03/28 06:02:29;;;;;;;;;;;;;;;25.75;39.82;95040.09;4863232;29;9569;-55
2023/03/28 06:05:21;;;;;;;;;;;;;;;25.76;39.73;95030.59;4855695;29;7258;-55
2023/03/28 06:08:08;;;;;;;;;;;;;;;25.75;40.93;95031.81;4863598;29;7179;-55
2023/03/28 06:10:45;;;;;;;;;;;;;;;25.77;39.86;95043.13;4860870;29;7291;-56
2023/03/28 06:13:22;;;;;;;;;;;;;;;25.77;40.04;95039.63;4898292;29;7325;-55
2023/03/28 06:15:49;;;;;;;;;;;;;;;25.78;40.35;95036.34;4911388;29;9681;-55
2023/03/28 06:18:33;;;;;;;;;;;;;;;25.77;40.88;95036.84;4919514;29;8735;-55
2023/03/28 06:21:00;;;;;;;;;;;;;;;25.78;40.61;95043.88;4935012;29;7146;-55
2023/03/28 06:23:34;;;;;;;;;;;;;;;25.77;40.58;95042.38;4969910;28;9023;-55
2023/03/28 06:26:01;;;;;;;;;;;;;;;25.81;40.04;95046.41;4996061;28;9006;-56
2023/03/28 06:28:34;;;;;;;;;;;;;;;25.79;39.65;95046.13;5013247;28;7142;-56
2023/03/28 06:31:20;;;;;;;;;;;;;;;25.82;40.36;95045.13;5028604;28;8923;-55
2023/03/28 06:34:24;;;;;;;;;;;;;;;25.87;39.84;95049.16;5002559;28;7450;-55
2023/03/28 06:37:05;;;;;;;;;;;;;;;25.85;40.06;95049.66;4958755;28;8761;-55
2023/03/28 06:39:32;;;;;;;;;;;;;;;25.81;40.03;95051.91;4974001;28;7242;-56
2023/03/28 06:42:11;;;;;;;;;;;;;;;25.81;41.04;95051.16;4956153;28;9153;-55
2023/03/28 06:44:37;;;;;;;;;;;;;;;25.81;40.72;95051.16;4964491;28;6937;-56
2023/03/28 06:47:03;;;;;;;;;;;;;;;25.81;40.87;95049.16;4947193;28;7037;-56
2023/03/28 06:49:41;;;;;;;;;;;;;;;25.81;40.75;95043.63;4947248;28;9354;-56
2023/03/28 06:52:22;;;;;;;;;;;;;;;25.81;40.79;95042.88;4949034;28;6995;-56
2023/03/28 06:54:48;;;;;;;;;;;;;;;25.80;40.73;95042.13;4945933;28;9040;-55
2023/03/28 06:57:34;;;;;;;;;;;;;;;25.81;40.33;95042.88;4956339;28;7032;-56
2023/03/28 07:00:29;;;;;;;;;;;;;;;25.81;41.14;95043.63;4956749;28;9109;-56
2023/03/28 07:02:56;;;;;;;;;;;;;;;25.83;40.87;95048.66;4963618;28;7373;-56
2023/03/28 07:05:22;;;;;;;;;;;;;;;25.79;41.11;95039.88;4967987;28;9174;-55
2023/03/28 07:07:58;;;;;;;;;;;;;;;25.82;40.61;95044.38;4970568;28;9466;-55
2023/03/28 07:11:00;;;;;;;;;;;;;;;25.84;40.96;95050.13;4968118;28;7547;-56
2023/03/28 07:13:27;;;;;;;;;;;;;;;25.85;40.79;95052.41;4996248;28;8248;-56
2023/03/28 07:16:06;;;;;;;;;;;;;;;25.84;40.68;95048.13;4997858;28;9427;-55
2023/03/28 07:18:35;;;;;;;;;;;;;;;25.83;41.13;95052.16;5006884;28;9167;-56
2023/03/28 07:21:10;;;;;;;;;;;;;;;25.85;40.75;95049.66;5006283;28;8700;-55
2023/03/28 07:23:38;;;;;;;;;;;;;;;25.86;40.70;95050.41;5000559;28;9403;-56
2023/03/28 07:26:14;;;;;;;;;;;;;;;25.88;40.90;95054.16;5002293;28;9278;-55
2023/03/28 07:29:10;;;;;;;;;;;;;;;25.89;41.69;95055.69;5025809;28;7334;-56
2023/03/28 07:31:46;;;;;;;;;;;;;;;25.91;40.99;95052.41;5034280;28;7224;-55
2023/03/28 07:34:17;;;;;;;;;;;;;;;25.92;41.25;95057.47;4997050;28;8007;-55
2023/03/28 07:36:43;;;;;;;;;;;;;;;25.92;40.91;95054.69;4998212;28;8988;-56
2023/03/28 07:39:10;;;;;;;;;;;;;;;25.91;40.68;95057.94;5012449;28;9051;-55
2023/03/28 07:41:37;;;;;;;;;;;;;;;25.93;41.55;95056.19;5017206;28;7167;-55
2023/03/28 07:44:05;;;;;;;;;;;;;;;25.95;41.46;95052.94;5001156;28;9035;-56
2023/03/28 07:46:36;;;;;;;;;;;;;;;25.95;40.68;95050.94;5002717;28;7218;-55
2023/03/28 07:49:06;;;;;;;;;;;;;;;25.96;40.83;95049.69;5004848;28;9435;-56
2023/03/28 07:52:03;;;;;;;;;;;;;;;25.98;40.74;95052.69;4999636;28;7075;-56
2023/03/28 07:54:55;;;;;;;;;;;;;;;26.00;40.69;95052.19;5033620;28;8728;-55
2023/03/28 07:57:39;;;;;;;;;;;;;;;26.00;40.85;95049.44;4997547;28;7584;-56
2023/03/28 08:00:11;;;;;;;;;;;;;;;26.02;40.44;95057.97;5033560;28;7062;-55
2023/03/28 08:02:45;;;;;;;;;;;;;;;26.01;40.41;95057.19;5009733;28;9029;-55
2023/03/28 08:05:11;;;;;;;;;;;;;;;26.04;41.31;95058.22;5006237;28;7121;-56
2023/03/28 08:07:40;;;;;;;;;;;;;;;26.04;40.98;95056.22;5035387;28;9353;-56
2023/03/28 08:10:08;;;;;;;;;;;;;;;26.05;40.79;95045.94;5004786;28;7080;-55
2023/03/28 08:12:44;;;;;;;;;;;;;;;26.06;40.90;95047.44;5001972;28;7177;-55
2023/03/28 08:15:11;;;;;;;;;;;;;;;26.06;40.59;95048.19;5031779;28;7470;-55
2023/03/28 08:17:47;;;;;;;;;;;;;;;26.07;40.27;95043.44;5003345;28;7443;-56
2023/03/28 08:20:29;;;;;;;;;;;;;;;26.08;41.41;95050.44;5002086;28;9267;-56
2023/03/28 08:23:06;;;;;;;;;;;;;;;26.07;41.21;95055.22;5000222;28;9013;-56
2023/03/28 08:25:42;;;;;;;;;;;;;;;26.10;40.63;95057.00;5007117;28;7273;-55
2023/03/28 08:28:08;;;;;;;;;;;;;;;26.11;41.29;95052.25;4996156;28;8711;-55
2023/03/28 08:30:34;;;;;;;;;;;;;;;26.12;41.08;95059.28;5029940;28;8942;-56
2023/03/28 08:33:04;;;;;;;;;;;;;;;26.13;41.23;95069.03;5028084;28;7242;-55
2023/03/28 08:35:39;;;;;;;;;;;;;;;26.13;40.83;95071.81;4997498;28;7055;-56
2023/03/28 08:38:37;;;;;;;;;;;;;;;26.13;41.15;95066.28;5001048;28;7245;-55
2023/03/28 08:41:20;;;;;;;;;;;;;;;26.15;40.73;95067.31;4937192;28;7083;-55
2023/03/28 08:44:18;;;;;;;;;;;;;;;26.17;41.20;95070.31;4932692;29;7347;-56
2023/03/28 08:47:14;;;;;;;;;;;;;;;26.21;40.36;95063.81;4938119;28;7460;-55
2023/03/28 08:50:12;;;;;;;;;;;;;;;26.19;40.74;95072.56;4904466;29;7444;-56
2023/03/28 08:52:51;;;;;;;;;;;;;;;26.22;41.12;95070.81;4906756;29;9099;-56
2023/03/28 08:55:41;;;;;;;;;;;;;;;26.23;40.96;95075.81;4906994;29;8991;-56
2023/03/28 09:01:59;;;;;;;;;;;;;;;26.23;41.11;95070.31;4924645;29;9043;-55
2023/03/28 09:04:50;;;;;;;;;;;;;;;26.26;40.29;95072.09;4917987;29;9061;-56
2023/03/28 09:07:54;;;;;;;;;;;;;;;26.26;41.13;95068.56;4906780;29;7074;-56
2023/03/28 09:10:44;;;;;;;;;;;;;;;26.26;40.68;95068.56;4912728;29;7519;-56
2023/03/28 09:13:56;;;;;;;;;;;;;;;26.23;40.47;95070.31;4916869;29;9211;-56
2023/03/28 09:17:16;;;;;;;;;;;;;;;26.25;40.62;95070.59;4853997;29;7604;-56
2023/03/28 09:20:22;;;;;;;;;;;;;;;26.25;40.43;95073.34;4888998;29;8690;-55
2023/03/28 09:22:59;;;;;;;;;;;;;;;26.25;40.55;95069.84;4877350;29;7437;-56
2023/03/28 09:26:02;;;;;;;;;;;;;;;26.26;41.23;95079.59;4882377;29;8985;-56
2023/03/28 09:29:06;;;;;;;;;;;;;;;26.27;41.05;95075.59;4908632;29;7309;-55
2023/03/28 09:31:47;;;;;;;;;;;;;;;26.26;40.44;95072.09;4923887;29;7224;-56
2023/03/28 09:34:19;;;;;;;;;;;;;;;26.26;40.68;95082.34;4917376;29;9058;-56
2023/03/28 09:37:01;;;;;;;;;;;;;;;26.28;40.50;95077.09;4921732;29;7424;-56
2023/03/28 09:39:52;;;;;;;;;;;;;;;26.28;40.60;95077.84;4930983;29;7273;-56
2023/03/28 09:46:07;;;;;;;;;;;;;;;26.31;40.31;95073.34;4933744;29;9034;-56
2023/03/28 09:49:14;;;;;;;;;;;;;;;26.32;41.00;95066.59;4917886;28;8931;-56
2023/03/28 09:51:53;;;;;;;;;;;;;;;26.31;40.24;95067.84;4933607;28;8761;-56
2023/03/28 09:54:49;;;;;;;;;;;;;;;26.31;40.76;95073.34;4947696;28;8651;-56
2023/03/28 09:57:17;;;;;;;;;;;;;;;26.32;40.53;95066.59;4943421;28;9067;-56
2023/03/28 10:00:05;;;;;;;;;;;;;;;26.30;40.81;95064.31;4961220;28;9089;-56
2023/03/28 10:02:39;;;;;;;;;;;;;;;26.27;40.92;95062.56;4954097;28;9134;-56
2023/03/28 10:05:36;;;;;;;;;;;;;;;26.30;40.89;95066.31;4957137;28;9103;-56
2023/03/28 10:08:41;;;;;;;;;;;;;;;26.31;40.88;95057.56;4956408;28;7635;-56
2023/03/28 10:11:22;;;;;;;;;;;;;;;26.32;40.59;95059.06;4950524;28;7257;-56
2023/03/28 10:13:58;;;;;;;;;;;;;;;26.34;40.05;95053.06;4954770;28;7227;-56
2023/03/28 10:17:01;;;;;;;;;;;;;;;26.38;40.42;95062.56;4956662;28;9141;-56
2023/03/28 10:19:45;;;;;;;;;;;;;;;26.38;40.17;95067.34;4896869;29;7033;-56
2023/03/28 10:22:25;;;;;;;;;;;;;;;26.37;39.81;95057.56;4916019;29;9319;-56
2023/03/28 10:24:52;;;;;;;;;;;;;;;26.37;40.03;95055.56;4883552;29;8774;-56
2023/03/28 10:27:25;;;;;;;;;;;;;;;26.39;40.49;95049.53;4843625;29;9139;-56
2023/03/28 10:30:15;;;;;;;;;;;;;;;26.40;39.66;95048.28;4845782;29;7794;-56
2023/03/28 10:33:20;;;;;;;;;;;;;;;26.40;40.13;95049.03;4859784;29;7200;-56
2023/03/28 10:36:03;;;;;;;;;;;;;;;26.42;39.78;95043.78;4834657;29;7439;-56
2023/03/28 10:38:50;;;;;;;;;;;;;;;26.42;39.86;95043.78;4844725;29;7315;-56
2023/03/28 10:41:30;;;;;;;;;;;;;;;26.47;40.07;95042.28;4843049;29;7292;-56
2023/03/28 10:43:56;;;;;;;;;;;;;;;26.45;40.50;95039.25;4835572;29;7237;-57
2023/03/28 10:46:42;;;;;;;;;;;;;;;26.47;40.02;95023.69;4925922;29;9375;-56
2023/03/28 10:49:17;;;;;;;;;;;;;;;26.47;39.82;95026.47;4911133;29;9021;-56
2023/03/28 10:51:45;;;;;;;;;;;;;;;26.47;40.02;95020.94;4909417;29;9366;-56
2023/03/28 10:54:30;;;;;;;;;;;;;;;26.48;39.89;95024.47;4988556;28;9058;-56
2023/03/28 10:57:28;;;;;;;;;;;;;;;26.48;39.90;95018.94;5004080;28;9060;-56
2023/03/28 11:00:29;;;;;;;;;;;;;;;26.46;40.28;95015.94;5004575;28;7197;-56
2023/03/28 11:03:23;;;;;;;;;;;;;;;26.45;40.82;95017.19;4999766;28;8697;-55
2023/03/28 11:06:15;;;;;;;;;;;;;;;26.48;40.76;95011.44;5017561;28;7107;-56
2023/03/28 11:09:18;;;;;;;;;;;;;;;26.50;40.36;95002.63;5007357;28;8712;-56
2023/03/28 11:12:02;;;;;;;;;;;;;;;26.51;40.05;95009.69;4939262;28;9112;-56
2023/03/28 11:15:14;;;;;;;;;;;;;;;26.54;40.58;95005.91;4922155;28;7520;-56
2023/03/28 11:18:07;;;;;;;;;;;;;;;26.55;40.26;95008.16;4922148;28;9130;-56
2023/03/28 11:24:38;;;;;;;;;;;;;;;26.59;39.95;95007.91;4907811;29;8950;-56
2023/03/28 11:27:38;;;;;;;;;;;;;;;26.64;39.99;95001.66;4897049;29;7266;-56
2023/03/28 11:30:33;;;;;;;;;;;;;;;26.64;40.44;95001.66;4875429;29;7897;-56
2023/03/28 11:33:23;;;;;;;;;;;;;;;26.66;40.05;94999.13;4869967;29;8633;-56
2023/03/28 11:36:15;;;;;;;;;;;;;;;26.69;40.43;95003.63;4855069;29;7285;-56
2023/03/28 11:39:16;;;;;;;;;;;;;;;26.69;40.37;94993.34;4870754;29;6937;-56
2023/03/28 11:42:12;;;;;;;;;;;;;;;26.73;40.08;94990.38;4853818;29;8821;-56
2023/03/28 11:44:47;;;;;;;;;;;;;;;26.74;39.96;94991.88;4849091;29;8781;-56
2023/03/28 11:47:37;;;;;;;;;;;;;;;26.77;39.71;94988.09;4854761;29;8956;-56
2023/03/28 11:50:50;;;;;;;;;;;;;;;26.78;39.87;94984.06;4918144;29;7507;-56
2023/03/28 11:53:48;;;;;;;;;;;;;;;26.78;39.98;94987.59;4905262;29;7282;-56
2023/03/28 11:56:47;;;;;;;;;;;;;;;26.80;40.03;94979.56;4915997;29;7267;-56
2023/03/28 12:00:04;;;;;;;;;;;;;;;26.84;39.50;94982.06;4915828;29;7142;-56
2023/03/28 12:03:19;;;;;;;;;;;;;;;26.84;40.37;94971.00;4875710;29;7513;-56
2023/03/28 12:05:56;;;;;;;;;;;;;;;26.85;39.72;94975.28;4888891;29;7160;-56
2023/03/28 12:08:50;;;;;;;;;;;;;;;26.85;39.81;94980.81;4918478;29;9413;-56
2023/03/28 12:12:11;;;;;;;;;;;;;;;26.86;39.61;94974.78;4914997;29;8797;-56
2023/03/28 12:15:21;;;;;;;;;;;;;;;26.86;39.69;94966.50;4915481;29;9353;-56
2023/03/28 12:18:02;;;;;;;;;;;;;;;26.87;39.92;94967.25;4914045;29;8808;-56
2023/03/28 12:20:50;;;;;;;;;;;;;;;26.89;39.80;94961.97;4914620;29;9497;-56
2023/03/28 12:23:56;;;;;;;;;;;;;;;26.89;39.74;94957.22;4914770;29;9758;-56
2023/03/28 12:26:39;;;;;;;;;;;;;;;26.89;40.18;94951.69;4888808;29;9158;-56
2023/03/28 12:29:29;;;;;;;;;;;;;;;26.91;39.97;94934.63;4874812;29;9310;-56
2023/03/28 12:32:23;;;;;;;;;;;;;;;26.90;40.41;94935.88;4870662;29;9102;-56
2023/03/28 12:35:06;;;;;;;;;;;;;;;26.92;39.82;94930.59;4861368;29;8270;-56
2023/03/28 12:37:53;;;;;;;;;;;;;;;26.92;40.63;94927.84;4890634;29;9397;-56
2023/03/28 12:40:26;;;;;;;;;;;;;;;26.92;39.78;94928.56;4922932;29;7684;-56
2023/03/28 12:42:57;;;;;;;;;;;;;;;26.92;39.94;94917.53;4948395;28;7236;-56
2023/03/28 12:45:31;;;;;;;;;;;;;;;26.92;40.24;94916.06;4949402;28;7285;-56
2023/03/28 12:48:06;;;;;;;;;;;;;;;26.92;40.07;94916.06;4963891;28;7290;-56
2023/03/28 12:51:20;;;;;;;;;;;;;;;26.92;40.38;94914.03;4952909;28;7963;-56
2023/03/28 12:54:19;;;;;;;;;;;;;;;26.91;39.79;94904.25;4900992;29;7277;-56
2023/03/28 12:57:00;;;;;;;;;;;;;;;26.93;39.94;94901.72;4882229;29;9000;-56
2023/03/28 12:59:57;;;;;;;;;;;;;;;26.94;40.11;94903.25;4889735;29;7133;-56
2023/03/28 13:03:12;;;;;;;;;;;;;;;26.94;40.12;94906.00;4916213;28;7216;-56
2023/03/28 13:06:00;;;;;;;;;;;;;;;26.95;40.18;94915.03;4915496;29;9142;-56
2023/03/28 13:08:41;;;;;;;;;;;;;;;26.95;39.95;94915.03;4913038;29;9443;-56
2023/03/28 13:11:55;;;;;;;;;;;;;;;26.94;40.54;94900.50;4916975;29;7331;-56
2023/03/28 13:14:33;;;;;;;;;;;;;;;26.94;39.70;94905.25;4851231;29;9485;-56
2023/03/28 13:17:14;;;;;;;;;;;;;;;26.93;40.04;94904.50;4846615;29;8543;-56
2023/03/28 13:20:12;;;;;;;;;;;;;;;26.93;40.87;94907.25;4872181;29;7070;-56
2023/03/28 13:22:56;;;;;;;;;;;;;;;26.96;39.99;94916.53;4855152;29;9045;-56
2023/03/28 13:25:25;;;;;;;;;;;;;;;26.95;40.59;94904.72;4857440;29;9111;-56
2023/03/28 13:28:15;;;;;;;;;;;;;;;26.97;40.33;94902.22;4868573;29;9082;-56
2023/03/28 13:30:45;;;;;;;;;;;;;;;26.96;40.67;94894.44;4868296;29;8999;-56
2023/03/28 13:33:28;;;;;;;;;;;;;;;26.96;40.51;94894.44;4886210;29;8228;-56
2023/03/28 13:35:56;;;;;;;;;;;;;;;26.98;40.64;94897.44;4886675;29;9024;-56
2023/03/28 13:38:45;;;;;;;;;;;;;;;27.00;40.11;94892.16;4868192;29;9269;-56
2023/03/28 13:41:54;;;;;;;;;;;;;;;27.01;40.13;94891.69;4889596;29;9144;-56
2023/03/28 13:44:38;;;;;;;;;;;;;;;27.07;40.02;94889.66;4913203;29;9361;-56
2023/03/28 13:47:30;;;;;;;;;;;;;;;27.10;40.16;94890.63;4931768;29;8712;-56
2023/03/28 13:50:20;;;;;;;;;;;;;;;27.08;40.33;94885.59;4966521;28;8764;-56
2023/03/28 13:52:52;;;;;;;;;;;;;;;27.09;40.22;94892.66;5020174;28;9484;-56
2023/03/28 13:55:25;;;;;;;;;;;;;;;27.12;39.92;94886.09;5001472;28;9394;-55
2023/03/28 13:58:22;;;;;;;;;;;;;;;27.13;39.93;94879.31;5022197;28;7292;-56
2023/03/28 14:01:05;;;;;;;;;;;;;;;27.16;40.07;94881.06;4934440;29;7650;-56
2023/03/28 14:03:35;;;;;;;;;;;;;;;27.21;39.77;94885.06;4929669;29;7612;-56
2023/03/28 14:06:20;;;;;;;;;;;;;;;27.23;40.02;94880.50;4926279;29;7195;-55
2023/03/28 14:08:52;;;;;;;;;;;;;;;27.25;39.97;94882.78;4941751;28;8169;-56
2023/03/28 14:11:34;;;;;;;;;;;;;;;27.26;40.06;94873.97;4926605;28;7215;-56
2023/03/28 14:14:23;;;;;;;;;;;;;;;27.32;39.74;94877.47;4921567;29;7222;-56
2023/03/28 14:16:51;;;;;;;;;;;;;;;27.33;39.82;94870.69;4927586;28;7208;-56
2023/03/28 14:19:22;;;;;;;;;;;;;;;27.34;39.77;94866.66;4927677;29;7249;-56
2023/03/28 14:21:58;;;;;;;;;;;;;;;27.39;39.97;94865.91;4935566;28;10464;-56
2023/03/28 14:24:25;;;;;;;;;;;;;;;27.43;39.59;94854.56;4938721;28;9162;-56
2023/03/28 14:27:05;;;;;;;;;;;;;;;27.48;39.75;94862.06;4930131;29;9099;-56
2023/03/28 14:29:58;;;;;;;;;;;;;;;27.51;39.69;94850.75;4935119;28;7127;-56
2023/03/28 14:32:31;;;;;;;;;;;;;;;27.54;39.87;94846.22;4929959;28;7077;-56
2023/03/28 14:35:36;;;;;;;;;;;;;;;27.55;39.55;94844.97;4927046;28;9130;-55
2023/03/28 14:38:30;;;;;;;;;;;;;;;27.55;39.50;94850.47;4922974;29;7031;-56
2023/03/28 14:41:26;;;;;;;;;;;;;;;27.58;39.56;94847.44;4915383;29;7078;-56